createdAt,value
2023-05-06T00:00:58.331Z,25.75
2023-05-06T00:01:58.382Z,25.75
2023-05-06T00:02:58.464Z,25.75
2023-05-06T00:03:58.575Z,25.77
2023-05-06T00:04:58.412Z,25.74
2023-05-06T00:05:58.366Z,25.77
2023-05-06T00:06:58.409Z,25.75
2023-05-06T00:07:58.924Z,25.77
2023-05-06T00:08:58.449Z,25.72
2023-05-06T00:09:58.433Z,25.75
2023-05-06T00:10:58.452Z,25.74
2023-05-06T00:11:58.424Z,25.74
2023-05-06T00:12:58.918Z,25.75
2023-05-06T00:13:58.542Z,25.75
2023-05-06T00:14:58.509Z,25.74
2023-05-06T00:15:58.646Z,25.75
2023-05-06T00:16:58.540Z,25.75
2023-05-06T00:17:58.941Z,25.75
2023-05-06T00:18:58.571Z,25.77
2023-05-06T00:19:58.576Z,25.74
2023-05-06T00:20:58.613Z,25.78
2023-05-06T00:21:58.639Z,25.77
2023-05-06T00:22:58.665Z,25.77
2023-05-06T00:23:58.638Z,25.74
2023-05-06T00:24:58.665Z,25.74
2023-05-06T00:25:58.653Z,25.72
2023-05-06T00:26:58.705Z,25.77
2023-05-06T00:27:58.699Z,25.75
2023-05-06T00:28:58.774Z,25.74
2023-05-06T00:29:58.815Z,25.75
2023-05-06T00:30:58.799Z,25.74
2023-05-06T00:31:58.858Z,25.75
2023-05-06T00:32:58.854Z,25.72
2023-05-06T00:33:58.774Z,25.74
2023-05-06T00:34:58.820Z,25.74
2023-05-06T00:35:58.794Z,25.74
2023-05-06T00:36:58.829Z,25.74
2023-05-06T00:37:58.845Z,25.74
2023-05-06T00:38:58.850Z,25.74
2023-05-06T00:39:58.824Z,25.74
2023-05-06T00:40:58.831Z,25.72
2023-05-06T00:41:58.832Z,25.74
2023-05-06T00:42:58.903Z,25.74
2023-05-06T00:43:58.882Z,25.72
2023-05-06T00:44:58.884Z,25.74
2023-05-06T00:45:58.956Z,25.72
2023-05-06T00:46:58.906Z,25.74
2023-05-06T00:47:58.999Z,25.71
2023-05-06T00:48:58.932Z,25.72
2023-05-06T00:49:58.944Z,25.72
2023-05-06T00:50:58.950Z,25.74
2023-05-06T00:51:59.004Z,25.74
2023-05-06T00:52:59.017Z,25.74
2023-05-06T00:53:59.031Z,25.74
2023-05-06T00:54:59.031Z,25.72
2023-05-06T00:55:59.091Z,25.74
2023-05-06T00:56:59.117Z,25.72
2023-05-06T00:57:59.121Z,25.68
2023-05-06T00:58:59.137Z,25.74
2023-05-06T00:59:59.172Z,25.74
2023-05-06T01:00:59.193Z,25.71
2023-05-06T01:01:59.284Z,25.72
2023-05-06T01:02:59.290Z,25.71
2023-05-06T01:03:59.384Z,25.72
2023-05-06T01:04:59.306Z,25.72
2023-05-06T01:05:59.271Z,25.71
2023-05-06T01:06:59.302Z,25.72
2023-05-06T01:07:59.332Z,25.71
2023-05-06T01:08:59.326Z,25.72
2023-05-06T01:09:59.369Z,25.72
2023-05-06T01:10:59.365Z,25.72
2023-05-06T01:11:59.383Z,25.70
2023-05-06T01:12:59.371Z,25.71
2023-05-06T01:13:59.376Z,25.71
2023-05-06T01:14:59.372Z,25.72
2023-05-06T01:15:59.414Z,25.68
2023-05-06T01:16:59.430Z,25.71
2023-05-06T01:17:59.461Z,25.71
2023-05-06T01:18:59.432Z,25.70
2023-05-06T01:19:59.476Z,25.72
2023-05-06T01:20:59.431Z,25.68
2023-05-06T01:21:59.452Z,25.70
2023-05-06T01:22:59.473Z,25.71
2023-05-06T01:23:59.469Z,25.70
2023-05-06T01:24:59.471Z,25.70
2023-05-06T01:25:59.482Z,25.72
2023-05-06T01:26:59.494Z,25.70
2023-05-06T01:27:59.496Z,25.70
2023-05-06T01:28:59.524Z,25.71
2023-05-06T01:29:59.496Z,25.71
2023-05-06T01:30:59.572Z,25.70
2023-05-06T01:31:59.505Z,25.70
2023-05-06T01:32:59.531Z,25.70
2023-05-06T01:33:59.584Z,25.71
2023-05-06T01:34:59.525Z,25.70
2023-05-06T01:35:59.519Z,25.71
2023-05-06T01:36:59.535Z,25.71
2023-05-06T01:37:59.582Z,25.70
2023-05-06T01:38:59.556Z,25.68
2023-05-06T01:39:59.543Z,25.72
2023-05-06T01:40:59.561Z,25.70
2023-05-06T01:41:59.600Z,25.71
2023-05-06T01:42:59.641Z,25.67
2023-05-06T01:43:59.620Z,25.71
2023-05-06T01:44:59.620Z,25.68
2023-05-06T01:45:59.642Z,25.70
2023-05-06T01:46:59.587Z,25.70
2023-05-06T01:47:59.670Z,25.70
2023-05-06T01:48:59.616Z,25.70
2023-05-06T01:49:59.622Z,25.71
2023-05-06T01:50:59.611Z,25.70
2023-05-06T01:51:59.649Z,25.70
2023-05-06T01:52:59.665Z,25.70
2023-05-06T01:53:59.633Z,25.70
2023-05-06T01:54:59.612Z,25.67
2023-05-06T01:55:59.646Z,25.68
2023-05-06T01:56:59.661Z,25.70
2023-05-06T01:57:59.668Z,25.70
2023-05-06T01:58:59.923Z,25.70
2023-05-06T01:59:59.667Z,25.67
2023-05-06T02:00:59.681Z,25.67
2023-05-06T02:01:59.824Z,25.68
2023-05-06T02:02:59.729Z,25.67
2023-05-06T02:03:59.816Z,25.68
2023-05-06T02:04:59.660Z,25.71
2023-05-06T02:05:59.758Z,25.67
2023-05-06T02:06:59.684Z,25.71
2023-05-06T02:07:59.668Z,25.70
2023-05-06T02:08:59.684Z,25.68
2023-05-06T02:09:59.713Z,25.67
2023-05-06T02:10:59.667Z,25.68
2023-05-06T02:11:59.691Z,25.70
2023-05-06T02:12:59.770Z,25.70
2023-05-06T02:13:59.677Z,25.68
2023-05-06T02:14:59.691Z,25.67
2023-05-06T02:15:59.788Z,25.67
2023-05-06T02:16:59.685Z,25.65
2023-05-06T02:17:59.731Z,25.68
2023-05-06T02:18:59.701Z,25.67
2023-05-06T02:19:59.697Z,25.67
2023-05-06T02:20:59.697Z,25.68
2023-05-06T02:21:59.741Z,25.65
2023-05-06T02:22:59.947Z,25.68
2023-05-06T02:23:59.745Z,25.68
2023-05-06T02:24:59.748Z,25.68
2023-05-06T02:25:59.749Z,25.65
2023-05-06T02:26:59.782Z,25.68
2023-05-06T02:27:59.778Z,25.68
2023-05-06T02:28:59.775Z,25.67
2023-05-06T02:29:59.785Z,25.67
2023-05-06T02:30:59.858Z,25.65
2023-05-06T02:31:59.869Z,25.67
2023-05-06T02:32:59.994Z,25.65
2023-05-06T02:33:59.821Z,25.65
2023-05-06T02:34:59.836Z,25.67
2023-05-06T02:35:59.801Z,25.64
2023-05-06T02:36:59.832Z,25.65
2023-05-06T02:37:59.916Z,25.65
2023-05-06T02:38:59.816Z,25.68
2023-05-06T02:39:59.850Z,25.65
2023-05-06T02:40:59.839Z,25.65
2023-05-06T02:41:59.888Z,25.64
2023-05-06T02:42:59.902Z,25.65
2023-05-06T02:43:59.908Z,25.67
2023-05-06T02:44:59.886Z,25.65
2023-05-06T02:45:59.940Z,25.65
2023-05-06T02:46:59.860Z,25.62
2023-05-06T02:47:59.929Z,25.62
2023-05-06T02:48:59.824Z,25.64
2023-05-06T02:49:59.825Z,25.65
2023-05-06T02:50:59.905Z,25.67
2023-05-06T02:51:59.840Z,25.67
2023-05-06T02:52:59.829Z,25.64
2023-05-06T02:54:00.165Z,25.64
2023-05-06T02:54:59.852Z,25.64
2023-05-06T02:55:59.861Z,25.67
2023-05-06T02:56:59.855Z,25.62
2023-05-06T02:57:59.871Z,25.65
2023-05-06T02:58:59.861Z,25.65
2023-05-06T02:59:59.895Z,25.65
2023-05-06T03:00:59.887Z,25.62
2023-05-06T03:01:59.852Z,25.65
2023-05-06T03:02:59.927Z,25.67
2023-05-06T03:03:59.860Z,25.67
2023-05-06T03:04:59.818Z,25.64
2023-05-06T03:05:59.888Z,25.64
2023-05-06T03:06:59.847Z,25.62
2023-05-06T03:07:59.855Z,25.62
2023-05-06T03:08:59.814Z,25.64
2023-05-06T03:09:59.830Z,25.65
2023-05-06T03:10:59.837Z,25.65
2023-05-06T03:11:59.853Z,25.64
2023-05-06T03:12:59.868Z,25.64
2023-05-06T03:13:59.830Z,25.65
2023-05-06T03:14:59.843Z,25.65
2023-05-06T03:15:59.844Z,25.65
2023-05-06T03:16:59.882Z,25.64
2023-05-06T03:17:59.835Z,25.64
2023-05-06T03:18:59.794Z,25.62
2023-05-06T03:19:59.795Z,25.64
2023-05-06T03:20:59.845Z,25.64
2023-05-06T03:21:59.793Z,25.62
2023-05-06T03:22:59.785Z,25.67
2023-05-06T03:23:59.801Z,25.62
2023-05-06T03:24:59.778Z,25.64
2023-05-06T03:25:59.965Z,25.65
2023-05-06T03:26:59.793Z,25.62
2023-05-06T03:27:59.773Z,25.64
2023-05-06T03:28:59.762Z,25.64
2023-05-06T03:29:59.779Z,25.62
2023-05-06T03:30:59.772Z,25.65
2023-05-06T03:31:59.821Z,25.62
2023-05-06T03:32:59.790Z,25.64
2023-05-06T03:33:59.756Z,25.65
2023-05-06T03:34:59.735Z,25.62
2023-05-06T03:35:59.744Z,25.62
2023-05-06T03:36:59.731Z,25.64
2023-05-06T03:37:59.737Z,25.61
2023-05-06T03:38:59.750Z,25.64
2023-05-06T03:39:59.745Z,25.62
2023-05-06T03:40:59.728Z,25.64
2023-05-06T03:41:59.776Z,25.61
2023-05-06T03:42:59.730Z,25.62
2023-05-06T03:43:59.703Z,25.64
2023-05-06T03:44:59.711Z,25.62
2023-05-06T03:45:59.721Z,25.64
2023-05-06T03:46:59.719Z,25.61
2023-05-06T03:47:59.710Z,25.64
2023-05-06T03:48:59.728Z,25.61
2023-05-06T03:49:59.715Z,25.62
2023-05-06T03:50:59.753Z,25.62
2023-05-06T03:51:59.704Z,25.62
2023-05-06T03:52:59.741Z,25.62
2023-05-06T03:53:59.721Z,25.64
2023-05-06T03:54:59.705Z,25.61
2023-05-06T03:55:59.697Z,25.62
2023-05-06T03:56:59.680Z,25.62
2023-05-06T03:57:59.835Z,25.65
2023-05-06T03:58:59.742Z,25.64
2023-05-06T03:59:59.721Z,25.64
2023-05-06T04:00:59.676Z,25.62
2023-05-06T04:01:59.750Z,25.61
2023-05-06T04:02:59.742Z,25.64
2023-05-06T04:03:59.826Z,25.65
2023-05-06T04:04:59.703Z,25.64
2023-05-06T04:05:59.687Z,25.62
2023-05-06T04:06:59.684Z,25.62
2023-05-06T04:07:59.697Z,25.65
2023-05-06T04:08:59.706Z,25.61
2023-05-06T04:09:59.659Z,25.61
2023-05-06T04:10:59.680Z,25.65
2023-05-06T04:11:59.688Z,25.62
2023-05-06T04:12:59.753Z,25.64
2023-05-06T04:13:59.831Z,25.61
2023-05-06T04:14:59.675Z,25.61
2023-05-06T04:15:59.661Z,25.61
2023-05-06T04:16:59.653Z,25.62
2023-05-06T04:17:59.680Z,25.62
2023-05-06T04:18:59.677Z,25.64
2023-05-06T04:19:59.649Z,25.64
2023-05-06T04:20:59.630Z,25.62
2023-05-06T04:21:59.639Z,25.65
2023-05-06T04:22:59.676Z,25.62
2023-05-06T04:23:59.656Z,25.61
2023-05-06T04:24:59.674Z,25.60
2023-05-06T04:25:59.645Z,25.61
2023-05-06T04:26:59.677Z,25.64
2023-05-06T04:27:59.659Z,25.62
2023-05-06T04:28:59.653Z,25.61
2023-05-06T04:29:59.709Z,25.64
2023-05-06T04:30:59.663Z,25.62
2023-05-06T04:31:59.770Z,25.62
2023-05-06T04:32:59.687Z,25.60
2023-05-06T04:33:59.647Z,25.61
2023-05-06T04:34:59.655Z,25.64
2023-05-06T04:35:59.628Z,25.61
2023-05-06T04:36:59.629Z,25.61
2023-05-06T04:37:59.644Z,25.61
2023-05-06T04:38:59.609Z,25.61
2023-05-06T04:39:59.610Z,25.62
2023-05-06T04:40:59.660Z,25.62
2023-05-06T04:41:59.612Z,25.61
2023-05-06T04:42:59.607Z,25.60
2023-05-06T04:43:59.615Z,25.62
2023-05-06T04:44:59.600Z,25.62
2023-05-06T04:45:59.622Z,25.64
2023-05-06T04:46:59.610Z,25.62
2023-05-06T04:47:59.637Z,25.62
2023-05-06T04:48:59.602Z,25.61
2023-05-06T04:49:59.599Z,25.61
2023-05-06T04:50:59.591Z,25.60
2023-05-06T04:51:59.558Z,25.61
2023-05-06T04:52:59.637Z,25.61
2023-05-06T04:53:59.591Z,25.61
2023-05-06T04:54:59.632Z,25.61
2023-05-06T04:55:59.599Z,25.64
2023-05-06T04:56:59.589Z,25.62
2023-05-06T04:57:59.564Z,25.60
2023-05-06T04:58:59.542Z,25.64
2023-05-06T04:59:59.586Z,25.64
2023-05-06T05:00:59.618Z,25.60
2023-05-06T05:01:59.685Z,25.61
2023-05-06T05:02:59.631Z,25.60
2023-05-06T05:03:59.544Z,25.64
2023-05-06T05:04:59.564Z,25.64
2023-05-06T05:05:59.565Z,25.62
2023-05-06T05:06:59.571Z,25.62
2023-05-06T05:07:59.543Z,25.61
2023-05-06T05:08:59.812Z,25.62
2023-05-06T05:09:59.561Z,25.62
2023-05-06T05:10:59.524Z,25.62
2023-05-06T05:11:59.536Z,25.62
2023-05-06T05:12:59.544Z,25.61
2023-05-06T05:14:01.048Z,25.61
2023-05-06T05:14:59.719Z,25.62
2023-05-06T05:15:59.757Z,25.64
2023-05-06T05:16:59.766Z,25.61
2023-05-06T05:17:59.842Z,25.65
2023-05-06T05:19:02.151Z,25.64
2023-05-06T05:19:59.706Z,25.62
2023-05-06T05:20:59.700Z,25.64
2023-05-06T05:21:59.715Z,25.62
2023-05-06T05:22:59.686Z,25.62
2023-05-06T05:23:59.697Z,25.61
2023-05-06T05:24:59.667Z,25.64
2023-05-06T05:25:59.680Z,25.61
2023-05-06T05:26:59.662Z,25.64
2023-05-06T05:27:59.650Z,25.64
2023-05-06T05:28:59.646Z,25.62
2023-05-06T05:29:59.665Z,25.61
2023-05-06T05:30:59.664Z,25.65
2023-05-06T05:31:59.647Z,25.64
2023-05-06T05:32:59.766Z,25.67
2023-05-06T05:33:59.680Z,25.62
2023-05-06T05:34:59.606Z,25.64
2023-05-06T05:35:59.611Z,25.67
2023-05-06T05:36:59.613Z,25.64
2023-05-06T05:37:59.565Z,25.67
2023-05-06T05:38:59.605Z,25.64
2023-05-06T05:39:59.629Z,25.64
2023-05-06T05:40:59.572Z,25.65
2023-05-06T05:41:59.531Z,25.67
2023-05-06T05:42:59.541Z,25.67
2023-05-06T05:43:59.531Z,25.65
2023-05-06T05:44:59.526Z,25.67
2023-05-06T05:45:59.570Z,25.68
2023-05-06T05:46:59.515Z,25.67
2023-05-06T05:47:59.566Z,25.62
2023-05-06T05:48:59.517Z,25.65
2023-05-06T05:49:59.563Z,25.67
2023-05-06T05:50:59.502Z,25.64
2023-05-06T05:51:59.478Z,25.64
2023-05-06T05:52:59.510Z,25.65
2023-05-06T05:53:59.481Z,25.67
2023-05-06T05:54:59.446Z,25.65
2023-05-06T05:55:59.456Z,25.67
2023-05-06T05:56:59.484Z,25.65
2023-05-06T05:57:59.459Z,25.62
2023-05-06T05:58:59.454Z,25.67
2023-05-06T05:59:59.447Z,25.67
2023-05-06T06:00:59.445Z,25.65
2023-05-06T06:01:59.409Z,25.68
2023-05-06T06:02:59.486Z,25.65
2023-05-06T06:03:59.610Z,25.67
2023-05-06T06:04:59.565Z,25.68
2023-05-06T06:06:00.272Z,25.67
2023-05-06T06:06:59.379Z,25.68
2023-05-06T06:07:59.987Z,25.68
2023-05-06T06:08:59.385Z,25.68
2023-05-06T06:09:59.360Z,25.68
2023-05-06T06:10:59.353Z,25.71
2023-05-06T06:11:59.351Z,25.71
2023-05-06T06:12:59.358Z,25.68
2023-05-06T06:13:59.349Z,25.71
2023-05-06T06:14:59.323Z,25.68
2023-05-06T06:15:59.527Z,25.71
2023-05-06T06:16:59.341Z,25.71
2023-05-06T06:17:59.378Z,25.72
2023-05-06T06:18:59.322Z,25.72
2023-05-06T06:19:59.314Z,25.71
2023-05-06T06:20:59.291Z,25.70
2023-05-06T06:21:59.304Z,25.71
2023-05-06T06:22:59.314Z,25.70
2023-05-06T06:23:59.276Z,25.68
2023-05-06T06:24:59.253Z,25.68
2023-05-06T06:25:59.246Z,25.71
2023-05-06T06:26:59.255Z,25.68
2023-05-06T06:27:59.237Z,25.68
2023-05-06T06:28:59.257Z,25.71
2023-05-06T06:29:59.209Z,25.70
2023-05-06T06:30:59.236Z,25.68
2023-05-06T06:31:59.309Z,25.70
2023-05-06T06:32:59.265Z,25.68
2023-05-06T06:33:59.208Z,25.70
2023-05-06T06:34:59.192Z,25.67
2023-05-06T06:35:59.213Z,25.68
2023-05-06T06:36:59.183Z,25.70
2023-05-06T06:37:59.245Z,25.68
2023-05-06T06:38:59.167Z,25.70
2023-05-06T06:39:59.162Z,25.67
2023-05-06T06:40:59.155Z,25.71
2023-05-06T06:41:59.168Z,25.68
2023-05-06T06:42:59.137Z,25.70
2023-05-06T06:43:59.150Z,25.71
2023-05-06T06:44:59.126Z,25.68
2023-05-06T06:45:59.132Z,25.68
2023-05-06T06:46:59.110Z,25.72
2023-05-06T06:47:59.191Z,25.71
2023-05-06T06:48:59.540Z,25.72
2023-05-06T06:49:59.055Z,25.72
2023-05-06T06:50:59.078Z,25.72
2023-05-06T06:51:59.070Z,25.72
2023-05-06T06:52:59.073Z,25.71
2023-05-06T06:53:59.175Z,25.75
2023-05-06T06:54:59.057Z,25.72
2023-05-06T06:55:59.033Z,25.77
2023-05-06T06:56:59.017Z,25.75
2023-05-06T06:57:59.006Z,25.75
2023-05-06T06:58:59.062Z,25.77
2023-05-06T06:59:58.997Z,25.77
2023-05-06T07:00:59.062Z,25.78
2023-05-06T07:01:58.988Z,25.77
2023-05-06T07:02:59.080Z,25.75
2023-05-06T07:03:59.053Z,25.78
2023-05-06T07:04:58.997Z,25.77
2023-05-06T07:05:58.970Z,25.79
2023-05-06T07:06:58.951Z,25.78
2023-05-06T07:07:58.946Z,25.81
2023-05-06T07:08:58.951Z,25.82
2023-05-06T07:09:59.162Z,25.82
2023-05-06T07:10:59.033Z,25.81
2023-05-06T07:11:59.040Z,25.82
2023-05-06T07:12:59.094Z,25.85
2023-05-06T07:13:59.156Z,25.87
2023-05-06T07:14:59.192Z,25.87
2023-05-06T07:15:59.238Z,25.88
2023-05-06T07:16:59.316Z,25.88
2023-05-06T07:17:59.427Z,25.89
2023-05-06T07:18:59.432Z,25.91
2023-05-06T07:19:59.442Z,25.92
2023-05-06T07:20:59.510Z,25.93
2023-05-06T07:21:59.543Z,25.93
2023-05-06T07:22:59.627Z,25.98
2023-05-06T07:23:59.672Z,25.96
2023-05-06T07:24:59.754Z,25.95
2023-05-06T07:25:59.898Z,25.98
2023-05-06T07:26:59.834Z,25.98
2023-05-06T07:27:59.917Z,25.96
2023-05-06T07:29:00.008Z,26.02
2023-05-06T07:30:00.097Z,26.02
2023-05-06T07:31:00.134Z,26.00
2023-05-06T07:32:00.198Z,26.03
2023-05-06T07:33:00.359Z,26.03
2023-05-06T07:34:00.322Z,26.00
2023-05-06T07:35:00.379Z,26.06
2023-05-06T07:36:00.411Z,26.08
2023-05-06T07:37:00.483Z,26.09
2023-05-06T07:38:00.575Z,26.13
2023-05-06T07:39:00.601Z,26.16
2023-05-06T07:40:00.651Z,26.19
2023-05-06T07:41:00.717Z,26.23
2023-05-06T07:42:00.982Z,26.26
2023-05-06T07:43:00.836Z,26.27
2023-05-06T07:44:00.894Z,26.29
2023-05-06T07:45:00.911Z,26.32
2023-05-06T07:46:00.959Z,26.35
2023-05-06T07:47:01.089Z,26.39
2023-05-06T07:48:01.078Z,26.40
2023-05-06T07:49:01.114Z,26.48
2023-05-06T07:50:01.136Z,26.54
2023-05-06T07:51:01.159Z,26.64
2023-05-06T07:52:01.210Z,26.92
2023-05-06T07:53:01.251Z,27.24
2023-05-06T07:54:01.280Z,27.12
2023-05-06T07:55:01.334Z,27.05
2023-05-06T07:56:01.360Z,27.22
2023-05-06T07:57:01.360Z,27.40
2023-05-06T07:58:01.422Z,27.12
2023-05-06T07:59:01.462Z,27.18
2023-05-06T08:00:01.506Z,27.03
2023-05-06T08:01:01.540Z,26.99
2023-05-06T08:02:01.752Z,26.90
2023-05-06T08:03:01.768Z,26.81
2023-05-06T08:04:01.809Z,26.74
2023-05-06T08:05:01.693Z,26.67
2023-05-06T08:06:01.752Z,26.60
2023-05-06T08:07:01.781Z,26.54
2023-05-06T08:08:01.812Z,26.51
2023-05-06T08:09:01.897Z,26.44
2023-05-06T08:10:01.927Z,26.44
2023-05-06T08:11:02.034Z,26.40
2023-05-06T08:12:02.029Z,26.39
2023-05-06T08:13:02.090Z,26.37
2023-05-06T08:14:02.190Z,26.36
2023-05-06T08:15:02.203Z,26.37
2023-05-06T08:16:02.364Z,26.42
2023-05-06T08:17:02.271Z,26.42
2023-05-06T08:18:13.740Z,26.39
2023-05-06T08:19:03.259Z,26.39
2023-05-06T08:20:02.284Z,26.42
2023-05-06T08:21:02.299Z,26.71
2023-05-06T08:22:02.254Z,26.94
2023-05-06T08:23:02.266Z,27.06
2023-05-06T08:24:02.254Z,27.29
2023-05-06T08:25:02.267Z,27.48
2023-05-06T08:26:02.240Z,27.32
2023-05-06T08:27:02.231Z,27.13
2023-05-06T08:28:02.250Z,27.02
2023-05-06T08:29:02.211Z,26.95
2023-05-06T08:30:02.211Z,27.05
2023-05-06T08:31:02.220Z,26.95
2023-05-06T08:32:02.260Z,26.97
2023-05-06T08:33:02.253Z,26.91
2023-05-06T08:34:02.180Z,26.84
2023-05-06T08:35:02.215Z,26.81
2023-05-06T08:36:02.229Z,26.83
2023-05-06T08:37:02.245Z,26.77
2023-05-06T08:38:02.251Z,26.73
2023-05-06T08:39:02.568Z,26.70
2023-05-06T08:40:02.325Z,26.65
2023-05-06T08:41:02.380Z,26.63
2023-05-06T08:42:02.381Z,26.60
2023-05-06T08:43:02.455Z,26.54
2023-05-06T08:44:02.489Z,26.53
2023-05-06T08:45:02.512Z,26.50
2023-05-06T08:46:02.723Z,26.47
2023-05-06T08:47:02.578Z,26.43
2023-05-06T08:48:02.638Z,26.40
2023-05-06T08:49:02.666Z,26.37
2023-05-06T08:50:02.744Z,26.37
2023-05-06T08:51:02.741Z,26.36
2023-05-06T08:52:02.820Z,26.35
2023-05-06T08:53:02.817Z,26.33
2023-05-06T08:54:02.858Z,26.37
2023-05-06T08:55:02.912Z,26.36
2023-05-06T08:56:02.954Z,26.39
2023-05-06T08:57:02.935Z,26.36
2023-05-06T08:58:03.000Z,26.37
2023-05-06T08:59:03.017Z,26.39
2023-05-06T09:00:03.078Z,26.39
2023-05-06T09:01:03.338Z,26.42
2023-05-06T09:02:03.273Z,26.42
2023-05-06T09:03:03.200Z,26.42
2023-05-06T09:04:03.211Z,26.40
2023-05-06T09:05:03.266Z,26.39
2023-05-06T09:06:03.281Z,26.37
2023-05-06T09:07:03.316Z,26.37
2023-05-06T09:08:03.349Z,26.37
2023-05-06T09:09:03.388Z,26.35
2023-05-06T09:10:03.380Z,26.32
2023-05-06T09:11:03.436Z,26.29
2023-05-06T09:12:03.476Z,26.30
2023-05-06T09:13:03.574Z,26.27
2023-05-06T09:14:03.550Z,26.26
2023-05-06T09:15:03.616Z,26.26
2023-05-06T09:16:03.595Z,26.25
2023-05-06T09:17:03.703Z,26.20
2023-05-06T09:18:03.800Z,26.22
2023-05-06T09:19:03.720Z,26.22
2023-05-06T09:20:03.787Z,26.20
2023-05-06T09:21:03.842Z,26.19
2023-05-06T09:22:03.842Z,26.19
2023-05-06T09:23:03.912Z,26.17
2023-05-06T09:24:03.998Z,26.17
2023-05-06T09:25:04.021Z,26.19
2023-05-06T09:26:04.055Z,26.16
2023-05-06T09:27:04.120Z,26.15
2023-05-06T09:28:04.146Z,26.16
2023-05-06T09:29:04.209Z,26.12
2023-05-06T09:30:04.259Z,26.13
2023-05-06T09:31:04.357Z,26.10
2023-05-06T09:32:04.321Z,26.09
2023-05-06T09:33:04.405Z,26.09
2023-05-06T09:34:04.445Z,26.10
2023-05-06T09:35:04.498Z,26.08
2023-05-06T09:36:04.522Z,26.09
2023-05-06T09:37:04.627Z,26.06
2023-05-06T09:38:07.066Z,26.03
2023-05-06T09:39:05.062Z,26.06
2023-05-06T09:40:04.942Z,26.06
2023-05-06T09:41:05.039Z,26.03
2023-05-06T09:42:05.055Z,26.02
2023-05-06T09:43:05.173Z,26.03
2023-05-06T09:44:05.192Z,26.02
2023-05-06T09:45:05.205Z,25.99
2023-05-06T09:46:05.284Z,25.99
2023-05-06T09:47:05.323Z,25.99
2023-05-06T09:48:05.457Z,25.99
2023-05-06T09:49:05.479Z,25.99
2023-05-06T09:50:05.501Z,25.99
2023-05-06T09:51:05.567Z,25.96
2023-05-06T09:52:05.631Z,25.96
2023-05-06T09:53:05.690Z,25.98
2023-05-06T09:54:05.748Z,25.93
2023-05-06T09:55:05.788Z,25.95
2023-05-06T09:56:05.890Z,25.95
2023-05-06T09:57:05.948Z,25.96
2023-05-06T09:58:06.000Z,25.95
2023-05-06T09:59:06.072Z,25.95
2023-05-06T10:00:06.123Z,25.95
2023-05-06T10:01:06.147Z,25.95
2023-05-06T10:02:06.250Z,25.95
2023-05-06T10:03:06.450Z,25.96
2023-05-06T10:04:06.514Z,25.98
2023-05-06T10:05:06.558Z,25.98
2023-05-06T10:06:06.576Z,25.99
2023-05-06T10:07:06.530Z,25.98
2023-05-06T10:08:06.581Z,26.00
2023-05-06T10:09:06.618Z,26.02
2023-05-06T10:10:06.693Z,25.99
2023-05-06T10:11:06.722Z,26.02
2023-05-06T10:12:06.795Z,26.03
2023-05-06T10:13:06.912Z,26.06
2023-05-06T10:14:06.989Z,26.05
2023-05-06T10:15:07.032Z,26.06
2023-05-06T10:16:07.083Z,26.05
2023-05-06T10:17:07.099Z,26.08
2023-05-06T10:18:07.167Z,26.08
2023-05-06T10:19:07.237Z,26.10
2023-05-06T10:20:07.260Z,26.09
2023-05-06T10:21:07.312Z,26.10
2023-05-06T10:22:07.498Z,26.09
2023-05-06T10:23:07.412Z,26.09
2023-05-06T10:24:07.482Z,26.09
2023-05-06T10:25:07.660Z,26.10
2023-05-06T10:26:07.557Z,26.10
2023-05-06T10:27:07.611Z,26.12
2023-05-06T10:28:08.483Z,26.12
2023-05-06T10:29:08.642Z,26.12
2023-05-06T10:30:07.644Z,26.09
2023-05-06T10:31:07.655Z,26.12
2023-05-06T10:32:07.701Z,26.13
2023-05-06T10:33:08.042Z,26.13
2023-05-06T10:34:07.633Z,26.10
2023-05-06T10:35:07.663Z,26.12
2023-05-06T10:36:07.614Z,26.13
2023-05-06T10:37:07.566Z,26.13
2023-05-06T10:38:07.690Z,26.12
2023-05-06T10:39:07.606Z,26.15
2023-05-06T10:40:07.622Z,26.13
2023-05-06T10:41:07.675Z,26.15
2023-05-06T10:42:07.743Z,26.15
2023-05-06T10:43:07.747Z,26.16
2023-05-06T10:44:08.093Z,26.15
2023-05-06T10:45:07.948Z,26.16
2023-05-06T10:46:08.051Z,26.16
2023-05-06T10:47:07.945Z,26.16
2023-05-06T10:48:08.023Z,26.13
2023-05-06T10:49:08.067Z,26.13
2023-05-06T10:50:08.122Z,26.12
2023-05-06T10:51:08.184Z,26.10
2023-05-06T10:52:08.252Z,26.12
2023-05-06T10:53:08.295Z,26.09
2023-05-06T10:54:08.415Z,26.10
2023-05-06T10:55:08.633Z,26.09
2023-05-06T10:56:08.464Z,26.10
2023-05-06T10:57:08.512Z,26.08
2023-05-06T10:58:08.573Z,26.08
2023-05-06T10:59:08.628Z,26.06
2023-05-06T11:00:08.644Z,26.09
2023-05-06T11:01:08.744Z,26.09
2023-05-06T11:02:08.803Z,26.09
2023-05-06T11:03:08.899Z,26.08
2023-05-06T11:04:09.093Z,26.06
2023-05-06T11:05:09.081Z,26.06
2023-05-06T11:06:09.015Z,26.06
2023-05-06T11:07:09.089Z,26.06
2023-05-06T11:08:09.163Z,26.06
2023-05-06T11:09:09.214Z,26.06
2023-05-06T11:10:09.297Z,26.06
2023-05-06T11:11:09.274Z,26.03
2023-05-06T11:12:09.376Z,26.08
2023-05-06T11:13:09.428Z,26.06
2023-05-06T11:14:09.486Z,26.06
2023-05-06T11:15:09.725Z,26.05
2023-05-06T11:16:09.608Z,26.06
2023-05-06T11:17:09.814Z,26.08
2023-05-06T11:18:09.717Z,26.06
2023-05-06T11:19:09.743Z,26.06
2023-05-06T11:20:09.959Z,26.09
2023-05-06T11:21:09.879Z,26.09
2023-05-06T11:22:09.910Z,26.09
2023-05-06T11:23:09.981Z,26.08
2023-05-06T11:24:10.141Z,26.10
2023-05-06T11:25:10.114Z,26.09
2023-05-06T11:26:10.151Z,26.12
2023-05-06T11:27:10.211Z,26.10
2023-05-06T11:28:10.252Z,26.12
2023-05-06T11:29:10.355Z,26.12
2023-05-06T11:30:10.530Z,26.12
2023-05-06T11:31:10.567Z,26.13
2023-05-06T11:32:10.460Z,26.13
2023-05-06T11:33:10.656Z,26.10
2023-05-06T11:34:10.572Z,26.13
2023-05-06T11:35:10.648Z,26.15
2023-05-06T11:36:10.672Z,26.13
2023-05-06T11:37:10.752Z,26.13
2023-05-06T11:38:10.917Z,26.13
2023-05-06T11:39:10.845Z,26.12
2023-05-06T11:40:11.218Z,26.10
2023-05-06T11:41:10.933Z,26.10
2023-05-06T11:42:11.005Z,26.10
2023-05-06T11:43:11.092Z,26.12
2023-05-06T11:44:11.620Z,26.10
2023-05-06T11:45:11.158Z,26.13
2023-05-06T11:46:11.228Z,26.10
2023-05-06T11:47:11.249Z,26.13
2023-05-06T11:48:11.330Z,26.13
2023-05-06T11:49:11.351Z,26.15
2023-05-06T11:50:11.637Z,26.13
2023-05-06T11:51:11.456Z,26.13
2023-05-06T11:52:11.512Z,26.13
2023-05-06T11:53:11.557Z,26.16
2023-05-06T11:54:11.615Z,26.16
2023-05-06T11:55:11.656Z,26.16
2023-05-06T11:56:11.697Z,26.15
2023-05-06T11:57:11.764Z,26.16
2023-05-06T11:58:11.881Z,26.16
2023-05-06T11:59:11.853Z,26.17
2023-05-06T12:00:12.182Z,26.17
2023-05-06T12:01:11.964Z,26.19
2023-05-06T12:02:12.006Z,26.19
2023-05-06T12:03:12.078Z,26.20
2023-05-06T12:04:12.202Z,26.19
2023-05-06T12:05:12.146Z,26.22
2023-05-06T12:06:12.189Z,26.20
2023-05-06T12:07:12.244Z,26.20
2023-05-06T12:08:20.019Z,26.22
2023-05-06T12:09:13.620Z,26.20
2023-05-06T12:10:12.477Z,26.20
2023-05-06T12:11:12.288Z,26.17
2023-05-06T12:12:12.357Z,26.16
2023-05-06T12:13:12.309Z,26.15
2023-05-06T12:14:12.367Z,26.13
2023-05-06T12:15:12.234Z,26.15
2023-05-06T12:16:12.258Z,26.15
2023-05-06T12:17:12.249Z,26.13
2023-05-06T12:18:12.260Z,26.12
2023-05-06T12:19:12.274Z,26.12
2023-05-06T12:20:12.476Z,26.15
2023-05-06T12:21:12.285Z,26.12
2023-05-06T12:22:12.328Z,26.15
2023-05-06T12:23:12.477Z,26.12
2023-05-06T12:24:12.544Z,26.13
2023-05-06T12:25:12.574Z,26.12
2023-05-06T12:26:12.578Z,26.09
2023-05-06T12:27:12.624Z,26.10
2023-05-06T12:28:12.660Z,26.13
2023-05-06T12:29:12.702Z,26.09
2023-05-06T12:30:12.942Z,26.09
2023-05-06T12:31:12.877Z,26.08
2023-05-06T12:32:12.844Z,26.09
2023-05-06T12:33:12.921Z,26.10
2023-05-06T12:34:12.930Z,26.09
2023-05-06T12:35:12.989Z,26.10
2023-05-06T12:36:13.050Z,26.09
2023-05-06T12:37:13.071Z,26.09
2023-05-06T12:38:13.138Z,26.10
2023-05-06T12:39:13.176Z,26.08
2023-05-06T12:40:13.313Z,26.09
2023-05-06T12:41:13.272Z,26.09
2023-05-06T12:42:13.320Z,26.09
2023-05-06T12:43:13.386Z,26.10
2023-05-06T12:44:13.459Z,26.09
2023-05-06T12:45:13.469Z,26.09
2023-05-06T12:46:13.513Z,26.12
2023-05-06T12:47:13.538Z,26.06
2023-05-06T12:48:13.676Z,26.08
2023-05-06T12:49:14.139Z,26.08
2023-05-06T12:50:13.792Z,26.08
2023-05-06T12:51:13.729Z,26.10
2023-05-06T12:52:13.778Z,26.09
2023-05-06T12:53:13.799Z,26.08